Time;durP1;ratioP1;P1;durP2;ratioP2;P2;SDS_P1;SDS_P2;PMS_P1;PMS_P2;Temp;Humidity;BMP_temperature;BMP_pressure;BME280_temperature;BME280_humidity;BME280_pressure;Samples;Min_cycle;Max_cycle;Signal;HPM_P1;HPM_P2
2022/03/31 00:01:48;;;;;;;4.90;2.83;;;;;;;14.65;100.00;100270.53;2619691;47;20140;-65
2022/03/31 00:04:21;;;;;;;1.33;0.95;;;;;;;14.66;100.00;100272.19;2620020;39;20548;-65
2022/03/31 00:06:51;;;;;;;10.35;3.38;;;;;;;14.66;100.00;100273.97;2620533;39;20572;-64
2022/03/31 00:09:21;;;;;;;0.97;0.97;;;;;;;14.69;100.00;100273.69;2620181;39;20554;-64
2022/03/31 00:11:52;;;;;;;5.10;3.30;;;;;;;14.67;100.00;100266.00;2620127;54;20152;-65
2022/03/31 00:14:22;;;;;;;4.83;2.60;;;;;;;14.71;100.00;100271.81;2619220;54;20145;-64
2022/03/31 00:16:52;;;;;;;1.53;1.43;;;;;;;14.74;100.00;100271.53;2619917;39;20655;-64
2022/03/31 00:19:25;;;;;;;0.50;0.50;;;;;;;14.73;100.00;100269.88;2619327;47;20153;-64
2022/03/31 00:21:55;;;;;;;5.70;1.57;;;;;;;14.74;100.00;100269.75;2619931;54;20138;-65
2022/03/31 00:24:25;;;;;;;5.15;1.48;;;;;;;14.71;100.00;100266.59;2619918;54;20152;-65
2022/03/31 00:26:56;;;;;;;2.00;1.85;;;;;;;14.74;100.00;100274.16;2620106;54;20161;-65
2022/03/31 00:29:27;;;;;;;1.20;0.88;;;;;;;14.77;100.00;100266.06;2619369;47;20165;-65
2022/03/31 00:31:58;;;;;;;6.23;2.27;;;;;;;14.71;100.00;100263.97;2619745;54;20229;-65
2022/03/31 00:34:30;;;;;;;4.13;2.65;;;;;;;14.68;100.00;100267.69;2619649;54;20150;-65
2022/03/31 00:37:01;;;;;;;5.63;2.53;;;;;;;14.63;100.00;100271.63;2620159;39;20566;-66
2022/03/31 00:39:34;;;;;;;1.87;1.53;;;;;;;14.61;100.00;100270.91;2619315;54;20138;-65
2022/03/31 00:42:06;;;;;;;4.90;3.17;;;;;;;14.52;100.00;100268.09;2619692;54;20693;-65
2022/03/31 00:44:36;;;;;;;1.50;1.40;;;;;;;14.45;100.00;100274.78;2619929;54;20176;-64
2022/03/31 00:47:08;;;;;;;3.03;2.07;;;;;;;14.44;100.00;100277.56;2620118;54;20153;-65
2022/03/31 00:49:41;;;;;;;0.60;0.60;;;;;;;14.44;100.00;100278.34;2620555;54;20157;-65
2022/03/31 00:52:11;;;;;;;2.25;2.03;;;;;;;14.44;100.00;100272.34;2620180;47;20141;-65
2022/03/31 00:54:43;;;;;;;8.35;2.20;;;;;;;14.39;100.00;100264.06;2620038;50;20164;-65
2022/03/31 00:57:15;;;;;;;4.93;3.83;;;;;;;14.39;100.00;100254.44;2620123;54;20156;-65
2022/03/31 00:59:46;;;;;;;1.55;0.60;;;;;;;14.36;100.00;100261.69;2619856;47;20725;-64
2022/03/31 01:02:16;;;;;;;10.17;3.47;;;;;;;14.35;100.00;100247.00;2619678;54;20146;-63
2022/03/31 01:04:49;;;;;;;1.40;1.30;;;;;;;14.35;100.00;100247.81;2619900;54;20145;-63
2022/03/31 01:07:19;;;;;;;2.77;2.40;;;;;;;14.32;100.00;100252.44;2619712;54;20157;-64
2022/03/31 01:09:50;;;;;;;3.43;2.80;;;;;;;14.35;100.00;100249.59;2619937;54;20154;-64
2022/03/31 01:12:20;;;;;;;7.20;3.35;;;;;;;14.31;100.00;100248.16;2619618;47;20157;-64
2022/03/31 01:14:50;;;;;;;4.60;3.40;;;;;;;14.32;100.00;100248.00;2619945;54;20148;-64
2022/03/31 01:17:21;;;;;;;4.10;2.17;;;;;;;14.29;100.00;100245.66;2619531;54;20171;-64
2022/03/31 01:19:53;;;;;;;7.85;4.40;;;;;;;14.26;100.00;100266.81;2619992;54;20153;-64
2022/03/31 01:22:27;;;;;;;3.07;2.57;;;;;;;14.25;100.00;100262.53;2621953;39;20544;-64
2022/03/31 01:25:00;;;;;;;3.53;3.23;;;;;;;14.25;100.00;100256.47;2620247;54;20150;-64
2022/03/31 01:27:31;;;;;;;4.57;2.97;;;;;;;14.21;100.00;100271.56;2620165;54;20159;-65
2022/03/31 01:30:01;;;;;;;4.30;2.97;;;;;;;14.24;100.00;100266.09;2620079;54;20265;-63
2022/03/31 01:32:32;;;;;;;30.85;6.40;;;;;;;14.27;100.00;100252.81;2621073;47;20161;-64
2022/03/31 01:35:03;;;;;;;9.77;3.27;;;;;;;14.24;100.00;100250.44;2620009;54;20198;-63
2022/03/31 01:37:33;;;;;;;7.53;4.00;;;;;;;14.25;100.00;100241.66;2620185;54;20138;-64
2022/03/31 01:40:08;;;;;;;2.50;2.30;;;;;;;14.26;100.00;100243.31;2619479;54;20160;-64
2022/03/31 01:42:39;;;;;;;6.10;3.43;;;;;;;14.24;100.00;100245.22;2619613;54;20152;-64
2022/03/31 01:45:13;;;;;;;11.50;6.33;;;;;;;14.24;100.00;100245.22;2619464;47;20162;-64
2022/03/31 01:47:44;;;;;;;13.73;4.30;;;;;;;14.25;100.00;100235.59;2620028;54;20256;-63
2022/03/31 01:50:15;;;;;;;7.00;5.57;;;;;;;14.18;100.00;100239.69;2620376;54;20148;-64
2022/03/31 01:52:45;;;;;;;11.40;4.57;;;;;;;13.92;100.00;100192.28;2621406;54;20161;-64
2022/03/31 01:55:18;;;;;;;11.73;5.63;;;;;;;14.12;100.00;100238.44;2620450;54;20145;-63
2022/03/31 01:57:48;;;;;;;7.43;4.80;;;;;;;14.13;100.00;100237.44;2619662;54;20180;-64
2022/03/31 02:00:19;;;;;;;6.23;2.87;;;;;;;14.13;100.00;100232.22;2619542;54;20199;-64
2022/03/31 02:02:49;;;;;;;6.83;6.07;;;;;;;14.08;100.00;100235.22;2620418;39;20533;-64
2022/03/31 02:05:20;;;;;;;15.30;4.97;;;;;;;14.11;100.00;100228.09;2619938;54;20134;-64
2022/03/31 02:07:50;;;;;;;9.57;5.57;;;;;;;14.10;100.00;100227.28;2619775;54;20150;-64
2022/03/31 02:10:25;;;;;;;4.17;3.77;;;;;;;14.10;100.00;100229.88;2619955;54;20760;-64
2022/03/31 02:12:56;;;;;;;11.70;4.30;;;;;;;14.08;100.00;100213.53;2619550;54;20224;-64
2022/03/31 02:15:27;;;;;;;7.40;4.23;;;;;;;13.87;100.00;100194.44;2619552;54;20138;-64
2022/03/31 02:17:58;;;;;;;7.57;5.37;;;;;;;14.09;100.00;100225.59;2619512;54;20141;-64
2022/03/31 02:20:28;;;;;;;12.93;7.57;;;;;;;14.07;100.00;100217.09;2620226;47;20146;-64
2022/03/31 02:22:59;;;;;;;6.07;5.47;;;;;;;14.07;100.00;100214.50;2618398;47;20685;-65
2022/03/31 02:25:32;;;;;;;11.53;8.47;;;;;;;14.06;100.00;100231.09;2619139;54;20149;-64
2022/03/31 02:28:03;;;;;;;14.30;4.27;;;;;;;14.08;100.00;100235.22;2618913;54;20148;-65
2022/03/31 02:30:33;;;;;;;10.10;5.23;;;;;;;14.10;100.00;100236.88;2620390;39;20531;-64
2022/03/31 02:33:03;;;;;;;13.90;7.10;;;;;;;14.12;100.00;100235.81;2619353;54;20686;-64
2022/03/31 02:35:37;;;;;;;5.50;4.77;;;;;;;14.06;100.00;100226.69;2619308;54;20164;-65
2022/03/31 02:38:07;;;;;;;5.73;3.37;;;;;;;13.68;100.00;100228.16;2619410;47;20154;-63
2022/03/31 02:40:42;;;;;;;3.90;1.63;;;;;;;13.68;100.00;100226.38;2619114;54;20196;-63
2022/03/31 02:43:12;;;;;;;5.70;3.63;;;;;;;13.83;100.00;100219.09;2620068;54;20153;-63
2022/03/31 02:45:42;;;;;;;4.50;4.13;;;;;;;13.79;100.00;100228.13;2619142;54;20140;-63
2022/03/31 02:48:13;;;;;;;13.23;4.40;;;;;;;13.52;100.00;100224.16;2619221;54;20145;-65
2022/03/31 02:50:43;;;;;;;4.40;3.50;;;;;;;13.35;100.00;100229.91;2619864;54;20141;-64
2022/03/31 02:55:58;;;;;;;4.57;2.40;;;;;;;13.13;100.00;100235.97;2620139;54;20654;-64
2022/03/31 02:58:28;;;;;;;3.13;2.83;;;;;;;13.19;100.00;100229.44;2620113;54;20193;-62
2022/03/31 03:00:58;;;;;;;5.73;4.17;;;;;;;13.21;100.00;100227.53;2619893;47;20154;-63
2022/03/31 03:03:29;;;;;;;8.57;5.73;;;;;;;13.21;100.00;100224.09;2619830;54;20150;-64
2022/03/31 03:05:59;;;;;;;1.93;1.77;;;;;;;13.00;100.00;100234.38;2620072;47;20172;-64
2022/03/31 03:08:31;;;;;;;2.47;2.27;;;;;;;12.84;100.00;100234.75;2619895;54;20153;-64
2022/03/31 03:11:03;;;;;;;1.20;1.20;;;;;;;12.49;100.00;100234.00;2619906;54;20181;-65
2022/03/31 03:13:35;;;;;;;2.20;2.10;;;;;;;12.19;100.00;100231.94;2619167;54;20150;-65
2022/03/31 03:16:08;;;;;;;1.73;1.63;;;;;;;12.06;100.00;100251.97;2620194;54;20163;-64
2022/03/31 03:18:38;;;;;;;3.03;2.83;;;;;;;11.95;100.00;100238.94;2619715;54;20176;-64
2022/03/31 03:21:10;;;;;;;1.47;1.23;;;;;;;11.94;100.00;100242.47;2619761;54;20171;-65
2022/03/31 03:23:42;;;;;;;3.93;1.30;;;;;;;11.95;100.00;100231.97;2619389;54;20157;-65
2022/03/31 03:26:15;;;;;;;5.00;2.50;;;;;;;12.04;100.00;100235.63;2618902;47;20150;-64
2022/03/31 03:28:46;;;;;;;12.10;3.47;;;;;;;12.13;100.00;100251.41;2619564;54;20695;-65
2022/03/31 03:31:16;;;;;;;3.17;2.43;;;;;;;12.16;100.00;100252.94;2619876;54;20225;-65
2022/03/31 03:33:47;;;;;;;0.93;0.93;;;;;;;12.24;100.00;100252.41;2618980;54;20144;-65
2022/03/31 03:36:17;;;;;;;1.40;1.30;;;;;;;12.22;100.00;100249.91;2619456;47;20165;-65
2022/03/31 03:38:48;;;;;;;2.53;2.33;;;;;;;12.16;100.00;100252.94;2618785;54;20154;-65
2022/03/31 03:41:21;;;;;;;8.07;2.83;;;;;;;12.14;100.00;100240.06;2619672;54;20138;-64
2022/03/31 03:43:51;;;;;;;1.37;1.20;;;;;;;12.25;100.00;100251.44;2619570;54;20145;-65
2022/03/31 03:46:23;;;;;;;1.10;1.10;;;;;;;12.22;100.00;100247.31;2619620;47;20257;-65
2022/03/31 03:48:54;;;;;;;4.27;2.60;;;;;;;12.09;100.00;100244.78;2618756;54;20163;-66
2022/03/31 03:51:24;;;;;;;1.07;1.00;;;;;;;12.04;100.00;100246.03;2618896;54;20245;-64
2022/03/31 03:53:55;;;;;;;4.97;1.93;;;;;;;11.93;100.00;100236.44;2619273;47;20702;-64
2022/03/31 03:56:28;;;;;;;1.63;1.43;;;;;;;11.92;100.00;100245.16;2619197;54;20146;-64
2022/03/31 03:58:58;;;;;;;3.53;2.80;;;;;;;11.96;100.00;100240.56;2618850;54;20193;-64
2022/03/31 04:01:28;;;;;;;8.17;2.50;;;;;;;12.00;100.00;100239.41;2619516;54;20146;-63
2022/03/31 04:03:59;;;;;;;1.40;1.10;;;;;;;12.15;100.00;100238.31;2620487;39;20515;-64
2022/03/31 04:06:29;;;;;;;4.80;1.80;;;;;;;12.24;100.00;100214.19;2618981;54;20142;-63
2022/03/31 04:08:59;;;;;;;1.07;1.03;;;;;;;12.46;100.00;100224.66;2619207;54;20142;-64
2022/03/31 04:11:32;;;;;;;2.20;1.60;;;;;;;12.58;100.00;100230.72;2619514;54;20717;-65
2022/03/31 04:14:03;;;;;;;2.23;1.83;;;;;;;12.68;100.00;100234.25;2619173;54;20165;-65
2022/03/31 04:16:33;;;;;;;2.20;2.10;;;;;;;12.75;100.00;100222.44;2619619;47;20142;-64
2022/03/31 04:19:03;;;;;;;4.40;1.57;;;;;;;12.82;100.00;100205.41;2619848;54;20240;-65
2022/03/31 04:21:34;;;;;;;2.67;2.57;;;;;;;12.89;100.00;100224.81;2620064;54;20241;-65
2022/03/31 04:24:04;;;;;;;3.37;3.07;;;;;;;12.93;100.00;100196.75;2619513;54;20145;-65
2022/03/31 04:26:37;;;;;;;7.07;5.93;;;;;;;13.17;100.00;100200.06;2618951;54;20164;-65
2022/03/31 04:29:09;;;;;;;8.50;2.67;;;;;;;13.31;100.00;100197.22;2619324;39;20537;-65
2022/03/31 04:31:41;;;;;;;3.73;3.43;;;;;;;13.51;100.00;100206.06;2619374;31;20641;-66
2022/03/31 04:34:13;;;;;;;11.97;4.50;;;;;;;13.66;100.00;100204.81;2620028;39;20532;-65
2022/03/31 04:36:44;;;;;;;4.37;2.90;;;;;;;13.71;100.00;100207.88;2619064;54;20149;-65
2022/03/31 04:39:18;;;;;;;4.00;2.83;;;;;;;13.84;100.00;100215.56;2619638;47;20134;-65
2022/03/31 04:41:51;;;;;;;7.53;1.37;;;;;;;13.89;100.00;100214.19;2619049;47;20214;-65
2022/03/31 04:44:21;;;;;;;0.97;0.63;;;;;;;14.00;100.00;100208.13;2618890;54;20156;-65
2022/03/31 04:46:51;;;;;;;4.53;3.90;;;;;;;14.00;100.00;100206.31;2619201;54;20138;-64
2022/03/31 04:49:22;;;;;;;2.53;2.20;;;;;;;14.01;100.00;100207.97;2620029;54;20148;-65
2022/03/31 04:51:52;;;;;;;4.83;4.33;;;;;;;14.01;100.00;100222.81;2619291;54;20138;-64
2022/03/31 04:54:22;;;;;;;10.30;6.15;;;;;;;13.99;100.00;100232.53;2619306;54;20180;-64
2022/03/31 04:56:55;;;;;;;10.07;4.97;;;;;;;13.97;100.00;100217.00;2617977;54;20181;-64
2022/03/31 04:59:25;;;;;;;5.27;4.00;;;;;;;13.96;100.00;100214.56;2618058;39;20608;-64
2022/03/31 05:01:55;;;;;;;3.97;2.23;;;;;;;13.97;100.00;100221.41;2617393;54;20154;-64
2022/03/31 05:04:26;;;;;;;3.93;2.37;;;;;;;13.95;100.00;100228.53;2617902;47;20145;-64
2022/03/31 05:06:56;;;;;;;4.10;2.33;;;;;;;13.90;100.00;100220.25;2617976;54;20252;-64
2022/03/31 05:09:27;;;;;;;5.00;2.53;;;;;;;13.87;100.00;100236.16;2619069;47;20228;-66
2022/03/31 05:12:00;;;;;;;3.33;1.57;;;;;;;13.79;100.00;100217.69;2619642;54;20138;-64
2022/03/31 05:14:30;;;;;;;2.30;1.67;;;;;;;13.83;100.00;100198.25;2619730;54;20156;-66
2022/03/31 05:17:01;;;;;;;1.60;1.50;;;;;;;13.91;100.00;100199.28;2619497;54;20193;-66
2022/03/31 05:19:31;;;;;;;6.60;1.20;;;;;;;13.97;100.00;100210.97;2619681;54;20141;-63
2022/03/31 05:22:01;;;;;;;4.17;2.50;;;;;;;14.06;100.00;100215.44;2619966;54;20145;-64
2022/03/31 05:24:31;;;;;;;2.23;2.13;;;;;;;14.18;100.00;100219.66;2619666;54;20226;-65
2022/03/31 05:27:04;;;;;;;8.77;4.05;;;;;;;14.22;100.00;100226.25;2619921;39;20877;-69
2022/03/31 05:29:35;;;;;;;4.10;2.60;;;;;;;14.24;100.00;100229.56;2620758;54;20133;-65
2022/03/31 05:32:06;;;;;;;6.95;3.15;;;;;;;14.21;100.00;100229.81;2620456;54;20201;-65
2022/03/31 05:34:36;;;;;;;6.63;3.57;;;;;;;14.21;100.00;100218.56;2619492;54;20146;-66
2022/03/31 05:37:07;;;;;;;0.97;0.93;;;;;;;14.33;100.00;100212.31;2619686;39;20548;-65
2022/03/31 05:39:39;;;;;;;0.53;0.53;;;;;;;14.42;100.00;100217.63;2619673;54;20172;-65
2022/03/31 05:42:12;;;;;;;3.20;1.93;;;;;;;14.47;100.00;100241.59;2618951;54;20662;-64
2022/03/31 05:44:42;;;;;;;8.10;3.53;;;;;;;14.40;100.00;100235.19;2619398;54;20249;-66
2022/03/31 05:47:12;;;;;;;5.07;2.70;;;;;;;14.44;100.00;100236.59;2619711;54;20145;-65
2022/03/31 05:49:43;;;;;;;9.97;6.20;;;;;;;14.42;100.00;100235.91;2619138;54;20189;-65
2022/03/31 05:52:13;;;;;;;4.75;4.25;;;;;;;14.40;100.00;100224.75;2619777;47;20145;-64
2022/03/31 05:54:43;;;;;;;8.20;4.00;;;;;;;14.44;100.00;100225.34;2619612;54;20142;-65
2022/03/31 05:57:16;;;;;;;9.80;4.93;;;;;;;14.39;100.00;100211.84;2619221;54;20137;-66
2022/03/31 05:59:46;;;;;;;7.25;4.18;;;;;;;14.58;100.00;100217.19;2618906;54;20231;-64
2022/03/31 06:02:17;;;;;;;2.83;2.63;;;;;;;14.78;100.00;100228.53;2618974;54;20161;-65
2022/03/31 06:05:10;;;;;;;3.33;1.97;;;;;;;14.87;100.00;100217.31;2618159;47;20161;-65
2022/03/31 06:07:40;;;;;;;8.47;7.70;;;;;;;15.02;100.00;100195.09;2618445;54;20149;-65
2022/03/31 06:10:11;;;;;;;12.40;4.93;;;;;;;15.18;100.00;100199.81;2620145;31;20677;-65
2022/03/31 06:12:44;;;;;;;10.48;5.95;;;;;;;15.42;100.00;100198.50;2618585;47;20681;-65
2022/03/31 06:15:15;;;;;;;13.63;3.13;;;;;;;15.58;100.00;100191.94;2618296;47;20142;-65
2022/03/31 06:17:47;;;;;;;3.67;3.38;;;;;;;15.64;100.00;100186.19;2618929;47;20150;-65
2022/03/31 06:20:19;;;;;;;15.82;4.43;;;;;;;15.65;100.00;100193.03;2619200;39;20559;-65
2022/03/31 06:22:49;;;;;;;0.90;0.90;;;;;;;15.71;100.00;100189.88;2618704;39;20762;-65
2022/03/31 06:25:20;;;;;;;9.27;2.90;;;;;;;15.76;100.00;100190.31;2618197;54;20141;-66
2022/03/31 06:27:53;;;;;;;6.22;4.13;;;;;;;15.83;100.00;100205.31;2618197;54;20133;-66
2022/03/31 06:30:23;;;;;;;8.90;3.17;;;;;;;15.82;100.00;100210.66;2618471;54;20696;-66
2022/03/31 06:32:53;;;;;;;5.53;2.55;;;;;;;15.94;100.00;100225.25;2618568;54;20157;-65
2022/03/31 06:35:24;;;;;;;9.98;4.43;;;;;;;16.04;100.00;100220.88;2619279;54;20149;-64
2022/03/31 06:37:54;;;;;;;9.80;3.45;;;;;;;16.11;100.00;100218.50;2619548;54;20142;-65
2022/03/31 06:40:24;;;;;;;9.77;3.58;;;;;;;16.18;100.00;100237.91;2618192;54;20142;-65
2022/03/31 06:42:57;;;;;;;4.22;3.22;;;;;;;16.25;100.00;100249.47;2617879;54;20157;-65
2022/03/31 06:45:27;;;;;;;8.13;5.00;;;;;;;16.11;100.00;100253.38;2618965;47;20138;-65
2022/03/31 06:47:59;;;;;;;11.23;6.80;;;;;;;16.06;100.00;100247.72;2618933;54;20204;-65
2022/03/31 06:50:33;;;;;;;2.42;2.15;;;;;;;16.23;100.00;100243.56;2617406;54;20241;-65
2022/03/31 06:53:04;;;;;;;2.70;2.47;;;;;;;16.30;100.00;100247.28;2618893;54;20157;-65
2022/03/31 06:55:35;;;;;;;5.50;3.22;;;;;;;16.47;100.00;100238.72;2618298;54;20156;-65
2022/03/31 06:58:08;;;;;;;7.25;2.97;;;;;;;16.63;100.00;100238.16;2619633;54;20140;-63
2022/03/31 07:00:38;;;;;;;4.30;2.53;;;;;;;16.62;100.00;100246.97;2617330;54;20142;-66
2022/03/31 07:03:09;;;;;;;16.67;7.57;;;;;;;16.67;100.00;100263.94;2619192;54;20165;-66
2022/03/31 07:05:40;;;;;;;21.83;12.85;;;;;;;16.59;100.00;100276.91;2619385;54;20149;-66
2022/03/31 07:08:10;;;;;;;12.07;7.60;;;;;;;16.57;100.00;100262.31;2618598;54;20142;-66
2022/03/31 07:10:40;;;;;;;13.15;8.38;;;;;;;16.66;100.00;100264.06;2619095;47;20146;-65
2022/03/31 07:13:13;;;;;;;5.25;3.67;;;;;;;16.83;100.00;100256.31;2618097;47;20146;-64
2022/03/31 07:15:44;;;;;;;6.38;2.75;;;;;;;16.86;100.00;100270.91;2619417;54;20153;-64
2022/03/31 07:18:14;;;;;;;6.03;2.20;;;;;;;16.78;100.00;100265.53;2619400;54;20153;-65
2022/03/31 07:20:45;;;;;;;2.67;1.83;;;;;;;16.94;100.00;100257.06;2618711;54;20148;-65
2022/03/31 07:23:15;;;;;;;3.50;2.08;;;;;;;16.87;100.00;100248.97;2619985;54;20680;-64
2022/03/31 07:25:45;;;;;;;3.55;2.75;;;;;;;16.98;100.00;100258.44;2619218;54;20179;-65
2022/03/31 07:28:18;;;;;;;3.67;2.45;;;;;;;17.25;100.00;100254.03;2619037;54;20150;-65
2022/03/31 07:30:48;;;;;;;4.47;2.45;;;;;;;17.15;100.00;100253.28;2618048;47;20693;-65
2022/03/31 07:33:21;;;;;;;5.18;2.15;;;;;;;17.35;100.00;100242.69;2617958;54;20157;-67
2022/03/31 07:35:52;;;;;;;8.80;2.45;;;;;;;17.13;100.00;100247.34;2618889;54;20141;-64
2022/03/31 07:38:22;;;;;;;3.45;2.17;;;;;;;17.28;100.00;100239.84;2618570;54;20164;-64
2022/03/31 07:40:53;;;;;;;1.73;1.30;;;;;;;17.49;100.00;100232.50;2618243;54;20142;-65
2022/03/31 07:43:27;;;;;;;3.72;1.00;;;;;;;17.54;100.00;100237.31;2617868;47;20173;-64
2022/03/31 07:45:57;;;;;;;21.67;3.97;;;;;;;17.51;100.00;100232.38;2617918;54;20156;-66
2022/03/31 07:48:27;;;;;;;3.00;2.08;;;;;;;17.55;100.00;100226.69;2617417;54;20157;-65
2022/03/31 07:50:59;;;;;;;1.95;1.40;;;;;;;17.58;100.00;100228.22;2618169;54;20149;-65
2022/03/31 07:53:32;;;;;;;7.68;2.22;;;;;;;17.77;100.00;100225.47;2618293;54;20157;-65
2022/03/31 07:56:03;;;;;;;3.05;2.00;;;;;;;17.84;100.00;100237.00;2619066;54;20133;-64
2022/03/31 07:58:37;;;;;;;16.63;5.25;;;;;;;17.98;100.00;100225.97;2618098;54;20209;-64
2022/03/31 08:01:07;;;;;;;5.97;3.95;;;;;;;17.78;100.00;100233.19;2617000;54;20141;-64
2022/03/31 08:03:38;;;;;;;3.40;1.98;;;;;;;17.83;100.00;100240.59;2617179;54;20156;-64
2022/03/31 08:06:08;;;;;;;2.15;1.92;;;;;;;18.06;100.00;100248.84;2617537;54;20133;-64
2022/03/31 08:08:39;;;;;;;14.82;4.25;;;;;;;17.92;100.00;100233.63;2618516;47;20227;-65
2022/03/31 08:11:09;;;;;;;6.78;3.83;;;;;;;17.98;100.00;100228.59;2617647;50;20142;-65
2022/03/31 08:13:43;;;;;;;1.92;1.83;;;;;;;18.24;100.00;100234.75;2617639;54;20146;-65
2022/03/31 08:16:13;;;;;;;6.55;3.92;;;;;;;18.29;100.00;100236.91;2618767;54;20156;-65
2022/03/31 08:18:43;;;;;;;5.38;2.58;;;;;;;18.34;100.00;100239.06;2618598;54;20225;-65
2022/03/31 08:21:13;;;;;;;4.38;2.42;;;;;;;18.43;100.00;100222.38;2619743;54;20188;-65
2022/03/31 08:23:44;;;;;;;1.13;1.02;;;;;;;18.38;100.00;100241.22;2619457;47;20138;-65
2022/03/31 08:26:14;;;;;;;11.50;3.15;;;;;;;18.24;100.00;100247.03;2620059;54;20145;-64
2022/03/31 08:28:47;;;;;;;1.67;1.58;;;;;;;18.45;100.00;100239.66;2619690;54;20146;-66
2022/03/31 08:31:17;;;;;;;0.00;0.00;;;;;;;18.73;100.00;100234.28;2620235;39;20556;-64
2022/03/31 08:33:47;;;;;;;3.60;2.38;;;;;;;18.81;100.00;100242.19;2619476;54;20153;-65
2022/03/31 08:36:18;;;;;;;2.75;1.33;;;;;;;18.57;100.00;100235.81;2619902;54;20141;-64
2022/03/31 08:38:48;;;;;;;3.00;2.90;;;;;;;18.79;100.00;100228.38;2620114;54;20152;-64
2022/03/31 08:41:21;;;;;;;9.20;2.15;;;;;;;18.79;100.00;100221.31;2619910;47;20233;-65
2022/03/31 08:43:55;;;;;;;6.38;2.65;;;;;;;18.78;100.00;100193.38;2619430;54;20154;-65
2022/03/31 08:46:25;;;;;;;0.03;0.03;;;;;;;19.10;100.00;100229.50;2620081;54;20134;-64
2022/03/31 08:48:58;;;;;;;0.93;0.93;;;;;;;19.04;100.00;100224.88;2619762;54;20167;-64
2022/03/31 08:51:29;;;;;;;8.45;2.70;;;;;;;18.92;100.00;100234.03;2619346;54;20157;-64
2022/03/31 08:54:00;;;;;;;1.20;1.02;;;;;;;18.80;100.00;100232.66;2619242;54;20145;-64
2022/03/31 08:56:30;;;;;;;12.25;2.58;;;;;;;18.52;100.00;100230.19;2619382;54;20687;-64
2022/03/31 08:59:24;;;;;;;6.05;2.00;;;;;;;18.59;100.00;100219.88;2619107;54;20204;-65
2022/03/31 09:01:54;;;;;;;3.97;2.70;;;;;;;18.64;100.00;100220.25;2619194;46;20146;-64
2022/03/31 09:04:25;;;;;;;7.28;2.20;;;;;;;18.74;100.00;100214.91;2618904;54;20153;-64
2022/03/31 09:07:04;;;;;;;6.40;4.13;;;;;;;18.80;100.00;100227.41;2619112;47;20142;-64
2022/03/31 09:09:35;;;;;;;2.92;2.60;;;;;;;19.07;100.00;100220.13;2619291;54;20159;-65
2022/03/31 09:12:05;;;;;;;0.52;0.45;;;;;;;18.99;100.00;100214.84;2619753;39;20562;-64
2022/03/31 09:14:56;;;;;;;2.17;1.45;;;;;;;19.03;100.00;100224.06;2619324;54;20157;-65
2022/03/31 09:17:26;;;;;;;3.88;2.10;;;;;;;19.16;100.00;100198.16;2620233;39;20789;-64
2022/03/31 09:19:59;;;;;;;8.65;3.55;;;;;;;19.04;100.00;100206.47;2619355;54;20180;-65
2022/03/31 09:22:30;;;;;;;3.45;1.75;;;;;;;19.18;100.00;100211.94;2619788;54;20134;-65
2022/03/31 09:25:04;;;;;;;2.47;1.50;;;;;;;19.33;100.00;100227.97;2619119;54;20141;-65
2022/03/31 09:27:34;;;;;;;3.97;3.10;;;;;;;19.29;100.00;100225.81;2618993;54;20141;-65
2022/03/31 09:30:11;;;;;;;8.63;6.05;;;;;;;19.00;100.00;100221.75;2619422;39;20429;-65
2022/03/31 09:32:49;;;;;;;12.63;3.88;;;;;;;18.60;100.00;100218.91;2619612;54;20142;-65
2022/03/31 09:35:23;;;;;;;4.00;3.20;;;;;;;18.36;100.00;100202.97;2618810;54;20153;-65
2022/03/31 09:37:55;;;;;;;9.38;3.13;;;;;;;18.32;100.00;100204.25;2619592;54;20142;-65
2022/03/31 09:40:25;;;;;;;2.00;1.45;;;;;;;18.69;100.00;100186.47;2619588;54;20244;-65
2022/03/31 09:43:01;;;;;;;6.97;2.65;;;;;;;19.00;100.00;100184.94;2619126;54;20233;-64
2022/03/31 09:45:43;;;;;;;4.57;2.85;;;;;;;18.96;100.00;100173.09;2618597;54;20237;-65
2022/03/31 09:48:20;;;;;;;1.98;1.85;;;;;;;19.08;100.00;100161.31;2619318;54;20156;-64
2022/03/31 09:50:53;;;;;;;8.65;5.00;;;;;;;19.17;100.00;100155.09;2619713;39;20565;-65
2022/03/31 09:53:23;;;;;;;4.75;2.83;;;;;;;19.23;100.00;100147.53;2619713;39;20542;-64
2022/03/31 09:55:54;;;;;;;4.93;3.28;;;;;;;19.41;100.00;100145.59;2619261;39;20625;-65
2022/03/31 09:58:25;;;;;;;17.75;3.20;;;;;;;19.40;100.00;100141.31;2618975;54;20207;-64
2022/03/31 10:00:58;;;;;;;1.00;0.38;;;;;;;19.52;100.00;100140.88;2619279;47;20154;-64
2022/03/31 10:03:29;;;;;;;8.15;3.67;;;;;;;19.58;100.00;100147.28;2618712;54;20186;-65
2022/03/31 10:06:06;;;;;;;7.03;2.55;;;;;;;19.65;100.00;100147.47;2618929;47;20711;-64
2022/03/31 10:08:39;;;;;;;15.32;3.67;;;;;;;19.53;100.00;100123.28;2618244;46;20164;-63
2022/03/31 10:11:10;;;;;;;1.13;0.98;;;;;;;19.58;100.00;100128.84;2618010;54;20153;-63
2022/03/31 10:13:46;;;;;;;1.23;1.20;;;;;;;19.43;100.00;100131.31;2618083;54;20188;-66
2022/03/31 10:16:28;;;;;;;1.33;1.20;;;;;;;19.74;100.00;100120.97;2617783;54;20180;-64
2022/03/31 10:18:58;;;;;;;4.90;3.55;;;;;;;20.02;100.00;100109.09;2617866;51;20165;-64
2022/03/31 10:21:30;;;;;;;3.83;2.25;;;;;;;20.07;100.00;100083.06;2619519;39;20578;-64
2022/03/31 10:26:44;;;;;;;1.83;1.73;;;;;;;20.19;100.00;100111.69;2618419;54;20192;-65
2022/03/31 10:29:16;;;;;;;3.53;1.45;;;;;;;20.68;99.34;100081.59;2618540;39;20528;-66
2022/03/31 10:31:49;;;;;;;1.17;1.08;;;;;;;20.21;100.00;100072.84;2619188;47;20150;-64
2022/03/31 10:34:20;;;;;;;4.18;1.95;;;;;;;20.38;100.00;100061.31;2619545;39;20578;-65
2022/03/31 10:36:52;;;;;;;0.68;0.52;;;;;;;20.52;99.25;100065.84;2618347;54;20141;-65
2022/03/31 10:39:24;;;;;;;2.08;1.48;;;;;;;20.73;96.31;100071.34;2619240;54;20141;-66
2022/03/31 10:42:04;;;;;;;4.88;3.35;;;;;;;20.04;100.00;100086.06;2619384;47;20674;-66
2022/03/31 10:44:34;;;;;;;3.92;2.05;;;;;;;20.38;99.26;100095.56;2618435;47;20149;-65
2022/03/31 10:47:09;;;;;;;5.20;2.80;;;;;;;20.37;96.19;100093.91;2618891;54;20142;-64
2022/03/31 10:49:40;;;;;;;11.45;5.00;;;;;;;20.21;98.19;100096.56;2618721;54;20133;-64
2022/03/31 10:52:23;;;;;;;10.98;2.90;;;;;;;20.23;99.42;100111.19;2618972;54;20169;-64
2022/03/31 10:54:54;;;;;;;3.72;3.08;;;;;;;20.58;95.48;100104.72;2619029;54;20257;-65
2022/03/31 10:57:24;;;;;;;3.10;1.08;;;;;;;20.54;95.82;100088.38;2618989;54;20237;-65
2022/03/31 10:59:54;;;;;;;6.53;2.28;;;;;;;20.47;93.88;100071.63;2618929;54;20188;-66
2022/03/31 11:02:29;;;;;;;4.22;2.85;;;;;;;20.52;94.97;100105.38;2619014;54;20141;-64
2022/03/31 11:05:00;;;;;;;8.98;2.95;;;;;;;20.71;92.32;100088.31;2619551;50;20145;-64
2022/03/31 11:07:30;;;;;;;11.85;2.53;;;;;;;20.62;91.67;100092.00;2619269;47;20248;-66
2022/03/31 11:10:06;;;;;;;6.88;1.67;;;;;;;20.55;91.76;100076.84;2619256;47;20654;-65
2022/03/31 11:12:37;;;;;;;7.05;2.25;;;;;;;20.81;89.39;100087.13;2619106;54;20141;-66
2022/03/31 11:15:10;;;;;;;19.42;3.55;;;;;;;20.64;88.50;100105.81;2617589;54;20686;-64
2022/03/31 11:17:44;;;;;;;3.55;3.33;;;;;;;20.57;91.82;100102.22;2617855;54;20152;-64
2022/03/31 11:20:20;;;;;;;17.13;9.70;;;;;;;19.96;94.02;100106.31;2618085;54;20168;-64
2022/03/31 11:22:53;;;;;;;9.02;4.93;;;;;;;20.26;94.26;100100.31;2618564;54;20168;-64
2022/03/31 11:25:25;;;;;;;30.02;6.35;;;;;;;20.45;89.73;100094.69;2619106;54;20141;-64
2022/03/31 11:27:56;;;;;;;4.30;2.72;;;;;;;20.59;87.14;100069.41;2618448;54;20152;-65
2022/03/31 11:30:29;;;;;;;9.35;1.65;;;;;;;20.84;86.01;100080.69;2618677;54;20157;-65
2022/03/31 11:33:03;;;;;;;5.68;1.30;;;;;;;20.66;87.58;100122.31;2618239;54;20167;-63
2022/03/31 11:35:33;;;;;;;5.75;3.03;;;;;;;20.47;90.48;100126.97;2618399;54;20707;-65
2022/03/31 11:38:08;;;;;;;13.65;1.98;;;;;;;20.66;88.60;100112.59;2618401;54;20170;-64
2022/03/31 11:40:41;;;;;;;5.80;4.13;;;;;;;20.78;86.88;100116.44;2618004;49;20161;-64
2022/03/31 11:43:13;;;;;;;3.75;2.25;;;;;;;20.77;86.14;100096.38;2617907;47;20157;-64